Time;durP1;ratioP1;P1;durP2;ratioP2;P2;SDS_P1;SDS_P2;PMS_P1;PMS_P2;Temp;Humidity;BMP_temperature;BMP_pressure;BME280_temperature;BME280_humidity;BME280_pressure;Samples;Min_cycle;Max_cycle;Signal;HPM_P1;HPM_P2
2023/06/18 00:01:35;;;;;;;22.05;14.13;;;18.10;99.90;;;;;;5093564;28;20568;-67
2023/06/18 00:04:21;;;;;;;21.08;15.07;;;18.20;99.90;;;;;;5091218;28;20051;-67
2023/06/18 00:07:07;;;;;;;21.20;14.63;;;18.20;99.90;;;;;;5093172;28;20035;-67
2023/06/18 00:09:53;;;;;;;19.63;14.75;;;18.20;99.90;;;;;;5096607;28;20062;-67
2023/06/18 00:12:39;;;;;;;18.10;14.00;;;18.10;99.90;;;;;;5101072;28;20767;-67
2023/06/18 00:15:25;;;;;;;17.95;13.95;;;18.20;99.90;;;;;;5098870;28;20031;-67
2023/06/18 00:18:11;;;;;;;18.15;13.60;;;18.20;99.90;;;;;;5108017;28;20088;-68
2023/06/18 00:20:59;;;;;;;18.77;14.52;;;18.10;99.90;;;;;;5102530;28;20043;-67
2023/06/18 00:23:45;;;;;;;20.30;14.57;;;18.10;99.90;;;;;;5104253;28;20035;-67
2023/06/18 00:26:31;;;;;;;18.63;15.70;;;18.10;99.90;;;;;;5095931;28;20027;-68
2023/06/18 00:29:17;;;;;;;19.58;14.40;;;18.10;99.90;;;;;;5094647;28;20027;-68
2023/06/18 00:32:03;;;;;;;18.42;14.23;;;18.00;99.90;;;;;;5089721;28;20495;-68
2023/06/18 00:34:53;;;;;;;15.65;12.63;;;18.00;99.90;;;;;;5098638;28;20048;-68
2023/06/18 00:37:45;;;;;;;19.35;15.05;;;18.00;99.90;;;;;;5103242;28;20048;-68
2023/06/18 00:40:31;;;;;;;18.17;14.45;;;17.90;99.90;;;;;;5101678;28;20032;-67
2023/06/18 00:43:17;;;;;;;16.42;13.13;;;17.90;99.90;;;;;;5105215;28;20377;-66
2023/06/18 00:46:04;;;;;;;18.50;14.23;;;17.80;99.90;;;;;;5091083;28;20039;-68
2023/06/18 00:48:51;;;;;;;19.58;13.48;;;17.80;99.90;;;;;;5089723;28;20615;-68
2023/06/18 00:51:37;;;;;;;22.30;15.35;;;17.80;99.90;;;;;;5089395;28;20562;-68
2023/06/18 00:54:24;;;;;;;18.30;14.00;;;17.80;99.90;;;;;;5092741;28;20148;-68
2023/06/18 00:57:17;;;;;;;17.50;13.40;;;17.70;99.90;;;;;;5101928;28;20043;-68
2023/06/18 01:00:13;;;;;;;20.63;15.20;;;17.70;99.90;;;;;;5100369;28;20271;-68
2023/06/18 01:03:02;;;;;;;17.95;14.38;;;17.70;99.90;;;;;;5103364;28;20558;-68
2023/06/18 01:05:55;;;;;;;19.25;14.63;;;17.70;99.90;;;;;;5097519;28;20093;-68
2023/06/18 01:08:43;;;;;;;17.33;14.90;;;17.60;99.90;;;;;;5110451;28;20373;-68
2023/06/18 01:11:29;;;;;;;18.27;14.00;;;17.60;99.90;;;;;;5100852;28;20084;-68
2023/06/18 01:14:17;;;;;;;20.75;15.80;;;17.60;99.90;;;;;;5108616;28;20032;-68
2023/06/18 01:17:06;;;;;;;19.95;14.60;;;17.60;99.90;;;;;;5098226;28;20050;-68
2023/06/18 01:19:56;;;;;;;21.38;14.25;;;17.60;99.90;;;;;;5105232;28;20032;-68
2023/06/18 01:23:02;;;;;;;20.52;14.70;;;17.60;99.90;;;;;;5075901;28;20086;-68
2023/06/18 01:25:48;;;;;;;19.55;14.10;;;17.60;99.90;;;;;;5095995;28;20035;-68
2023/06/18 01:28:35;;;;;;;18.95;13.73;;;17.60;99.90;;;;;;5109585;28;20046;-68
2023/06/18 01:31:23;;;;;;;18.23;14.07;;;17.60;99.90;;;;;;5091839;28;20115;-68
2023/06/18 01:34:09;;;;;;;18.85;13.68;;;17.60;99.90;;;;;;5091690;28;20043;-68
2023/06/18 01:37:17;;;;;;;20.35;14.43;;;17.50;99.90;;;;;;5089594;28;20054;-68
2023/06/18 01:40:04;;;;;;;16.92;13.75;;;17.50;99.90;;;;;;5090192;28;20052;-68
2023/06/18 01:43:19;;;;;;;17.58;13.05;;;17.50;99.90;;;;;;5089932;28;20043;-69
2023/06/18 01:46:11;;;;;;;19.30;13.95;;;17.50;99.90;;;;;;5095033;28;20043;-68
2023/06/18 01:49:02;;;;;;;17.98;13.38;;;17.40;99.90;;;;;;5091272;28;20035;-69
2023/06/18 01:51:50;;;;;;;19.23;13.32;;;17.40;99.90;;;;;;5105407;28;20089;-69
2023/06/18 01:54:37;;;;;;;21.85;12.85;;;17.50;99.90;;;;;;5087797;28;20525;-68
2023/06/18 01:57:23;;;;;;;17.30;13.50;;;17.50;99.90;;;;;;5074559;28;20036;-68
2023/06/18 02:00:10;;;;;;;17.42;14.20;;;17.50;99.90;;;;;;5102358;28;20111;-68
2023/06/18 02:02:56;;;;;;;18.48;13.40;;;17.50;99.90;;;;;;5093765;28;20050;-69
2023/06/18 02:05:42;;;;;;;19.20;13.85;;;17.50;99.90;;;;;;5087926;28;20042;-68
2023/06/18 02:08:28;;;;;;;17.67;12.52;;;17.50;99.90;;;;;;5096875;28;20488;-69
2023/06/18 02:11:14;;;;;;;15.10;11.40;;;17.40;99.90;;;;;;5093225;28;20028;-68
2023/06/18 02:14:00;;;;;;;15.82;12.38;;;17.40;99.90;;;;;;5100095;28;20036;-67
2023/06/18 02:16:48;;;;;;;18.85;13.07;;;17.40;99.90;;;;;;5100173;28;20075;-68
2023/06/18 02:19:34;;;;;;;18.30;13.10;;;17.30;99.90;;;;;;5108325;28;20039;-67
2023/06/18 02:22:22;;;;;;;15.68;12.70;;;17.30;99.90;;;;;;5092519;28;20036;-66
2023/06/18 02:25:09;;;;;;;15.68;12.15;;;17.30;99.90;;;;;;5101747;28;20106;-67
2023/06/18 02:28:06;;;;;;;16.48;12.60;;;17.30;99.90;;;;;;5105526;28;20115;-67
2023/06/18 02:30:52;;;;;;;16.25;12.65;;;17.30;99.90;;;;;;5104906;28;20132;-67
2023/06/18 02:33:38;;;;;;;16.02;11.98;;;17.30;99.90;;;;;;5108083;28;20066;-69
2023/06/18 02:36:24;;;;;;;15.48;11.80;;;17.30;99.90;;;;;;5095413;28;20401;-68
2023/06/18 02:39:10;;;;;;;17.35;12.80;;;17.20;99.90;;;;;;5106589;28;20075;-69
2023/06/18 02:41:56;;;;;;;14.93;12.52;;;17.20;99.90;;;;;;5093781;28;20050;-69
2023/06/18 02:44:42;;;;;;;19.10;12.73;;;17.20;99.90;;;;;;5091591;28;20494;-70
2023/06/18 02:47:28;;;;;;;17.70;12.35;;;17.20;99.90;;;;;;5108756;28;20028;-68
2023/06/18 02:50:15;;;;;;;18.73;12.85;;;17.20;99.90;;;;;;5106266;28;20039;-69
2023/06/18 02:53:01;;;;;;;18.27;12.68;;;17.20;99.90;;;;;;5095802;28;20119;-70
2023/06/18 02:55:47;;;;;;;16.35;12.63;;;17.30;99.90;;;;;;5098501;28;20322;-69
2023/06/18 02:58:35;;;;;;;16.65;13.95;;;17.30;99.90;;;;;;5101301;28;20485;-69
2023/06/18 03:01:24;;;;;;;14.32;11.95;;;17.30;99.90;;;;;;5096381;28;20024;-69
2023/06/18 03:04:14;;;;;;;16.20;12.98;;;17.30;99.90;;;;;;5091564;28;20032;-67
2023/06/18 03:07:00;;;;;;;13.90;11.07;;;17.30;99.90;;;;;;5092030;28;20039;-67
2023/06/18 03:09:46;;;;;;;19.42;12.82;;;17.30;99.90;;;;;;5095948;28;20047;-67
2023/06/18 03:12:32;;;;;;;17.67;13.60;;;17.20;99.90;;;;;;5105154;28;20027;-69
2023/06/18 03:15:21;;;;;;;15.63;11.38;;;17.20;99.90;;;;;;5093840;28;20036;-73
2023/06/18 03:18:07;;;;;;;16.63;12.38;;;17.20;99.90;;;;;;5091450;28;20043;-77
2023/06/18 03:20:53;;;;;;;15.57;12.10;;;17.20;99.90;;;;;;5093125;28;20061;-75
2023/06/18 03:23:39;;;;;;;14.40;11.30;;;17.20;99.90;;;;;;5090790;28;20052;-73
2023/06/18 03:26:25;;;;;;;16.38;12.00;;;17.20;99.90;;;;;;5094991;28;20036;-73
2023/06/18 03:29:11;;;;;;;16.45;12.70;;;17.30;99.90;;;;;;5102258;28;20554;-73
2023/06/18 03:31:57;;;;;;;14.48;12.23;;;17.30;99.90;;;;;;5095938;28;20048;-74
2023/06/18 03:34:43;;;;;;;14.23;11.23;;;17.30;99.90;;;;;;5094812;28;20063;-74
2023/06/18 03:37:30;;;;;;;17.63;12.65;;;17.30;99.90;;;;;;5091595;28;20036;-74
2023/06/18 03:40:16;;;;;;;16.90;13.25;;;17.20;99.90;;;;;;5093018;28;20103;-74
2023/06/18 03:43:02;;;;;;;17.52;13.25;;;17.30;99.90;;;;;;5103168;28;20172;-74
2023/06/18 03:45:48;;;;;;;17.73;13.55;;;17.30;99.90;;;;;;5100305;28;20035;-73
2023/06/18 03:48:36;;;;;;;18.20;13.70;;;17.40;99.90;;;;;;5092669;28;20036;-74
2023/06/18 03:51:22;;;;;;;22.90;13.98;;;17.40;99.90;;;;;;5091208;28;20532;-74
2023/06/18 03:54:08;;;;;;;18.42;14.38;;;17.50;99.90;;;;;;5111380;28;20031;-74
2023/06/18 03:56:54;;;;;;;17.75;13.63;;;17.60;99.90;;;;;;5098225;28;20030;-75
2023/06/18 03:59:40;;;;;;;26.58;14.57;;;17.60;99.90;;;;;;5092179;28;20137;-69
2023/06/18 04:02:26;;;;;;;17.92;13.65;;;17.60;99.90;;;;;;5090348;28;20026;-70
2023/06/18 04:05:12;;;;;;;18.50;14.65;;;17.70;99.90;;;;;;5091140;28;21883;-75
2023/06/18 04:07:58;;;;;;;17.75;14.23;;;17.80;99.90;;;;;;5091678;28;20063;-72
2023/06/18 04:10:45;;;;;;;16.85;12.93;;;17.80;99.90;;;;;;5100164;28;20400;-74
2023/06/18 04:13:31;;;;;;;20.17;14.68;;;17.90;99.90;;;;;;5102819;28;20027;-74
2023/06/18 04:16:17;;;;;;;18.85;13.20;;;18.00;99.90;;;;;;5092456;28;20036;-75
2023/06/18 04:19:03;;;;;;;27.50;14.23;;;18.00;99.90;;;;;;5090961;28;20111;-74
2023/06/18 04:21:49;;;;;;;17.90;13.75;;;18.00;99.90;;;;;;5093432;28;20028;-74
2023/06/18 04:24:35;;;;;;;18.65;14.30;;;18.00;99.90;;;;;;5106994;28;20102;-75
2023/06/18 04:27:21;;;;;;;19.55;14.15;;;18.10;99.90;;;;;;5091031;28;20382;-72
2023/06/18 04:30:08;;;;;;;25.70;14.43;;;18.10;99.90;;;;;;5093200;28;20477;-73
2023/06/18 04:32:53;;;;;;;17.67;12.98;;;18.20;99.90;;;;;;5099128;28;20092;-73
2023/06/18 04:35:39;;;;;;;19.42;13.88;;;18.30;99.90;;;;;;5099884;28;20040;-72
2023/06/18 04:38:26;;;;;;;19.55;13.98;;;18.30;99.90;;;;;;5102930;28;20046;-72
2023/06/18 04:41:12;;;;;;;19.00;13.25;;;18.40;99.90;;;;;;5094845;28;20518;-66
2023/06/18 04:43:58;;;;;;;19.83;13.77;;;18.50;99.90;;;;;;5089154;28;20400;-66
2023/06/18 04:46:44;;;;;;;22.65;13.85;;;18.50;99.90;;;;;;5093582;28;20035;-66
2023/06/18 04:49:30;;;;;;;20.20;14.68;;;18.50;99.90;;;;;;5108290;28;20035;-65
2023/06/18 04:52:16;;;;;;;19.55;14.15;;;18.60;99.90;;;;;;5098728;28;20027;-68
2023/06/18 04:55:02;;;;;;;18.20;13.43;;;18.60;99.90;;;;;;5102108;28;20035;-66
2023/06/18 04:57:48;;;;;;;18.30;12.63;;;18.70;99.90;;;;;;5101298;28;20522;-68
2023/06/18 05:00:34;;;;;;;15.65;12.55;;;18.80;99.90;;;;;;5104286;28;20039;-69
2023/06/18 05:03:20;;;;;;;15.05;11.60;;;18.80;99.90;;;;;;5095711;28;20118;-68
2023/06/18 05:06:06;;;;;;;16.88;13.23;;;18.90;99.90;;;;;;5107210;28;20055;-69
2023/06/18 05:08:52;;;;;;;16.23;12.85;;;19.00;99.90;;;;;;5104716;28;20036;-68
2023/06/18 05:11:38;;;;;;;18.95;13.73;;;19.00;99.90;;;;;;5098406;28;20056;-68
2023/06/18 05:14:24;;;;;;;17.30;12.77;;;19.00;99.90;;;;;;5088843;28;20036;-69
2023/06/18 05:17:10;;;;;;;19.63;14.35;;;19.10;99.90;;;;;;5109079;28;20071;-68
2023/06/18 05:19:56;;;;;;;17.55;13.65;;;19.20;99.90;;;;;;5106199;28;20028;-68
2023/06/18 05:22:42;;;;;;;20.48;13.77;;;19.20;99.90;;;;;;5078101;28;20172;-69
2023/06/18 05:25:28;;;;;;;23.27;14.57;;;19.30;99.90;;;;;;5088098;28;20286;-72
2023/06/18 05:28:14;;;;;;;16.80;13.43;;;19.40;99.90;;;;;;5093415;28;20036;-68
2023/06/18 05:31:00;;;;;;;16.52;12.80;;;19.40;99.90;;;;;;5095861;28;20055;-68
2023/06/18 05:33:46;;;;;;;17.83;12.82;;;19.50;99.90;;;;;;5078309;28;20047;-68
2023/06/18 05:36:31;;;;;;;15.60;11.80;;;19.60;99.90;;;;;;5091724;28;20024;-68
2023/06/18 05:39:17;;;;;;;14.75;11.45;;;19.60;99.90;;;;;;5089967;28;20027;-68
2023/06/18 05:42:04;;;;;;;15.25;11.35;;;19.70;99.90;;;;;;5092173;28;20026;-68
2023/06/18 05:44:50;;;;;;;15.02;11.25;;;19.70;99.90;;;;;;5097180;28;20342;-69
2023/06/18 05:47:36;;;;;;;16.60;10.88;;;19.80;99.90;;;;;;5093560;28;20036;-68
2023/06/18 05:50:22;;;;;;;12.63;9.70;;;19.90;99.90;;;;;;5088156;28;20404;-68
2023/06/18 05:53:08;;;;;;;11.15;8.48;;;20.00;99.90;;;;;;5088861;28;20028;-68
2023/06/18 05:55:54;;;;;;;11.85;7.75;;;20.00;99.90;;;;;;5094655;28;20040;-67
2023/06/18 05:58:40;;;;;;;13.13;8.55;;;20.10;99.90;;;;;;5108563;28;20122;-68
2023/06/18 06:01:26;;;;;;;9.60;7.15;;;20.20;99.90;;;;;;5091664;28;20049;-67
2023/06/18 06:04:12;;;;;;;8.82;6.53;;;20.20;99.90;;;;;;5108874;28;20039;-68
2023/06/18 06:06:58;;;;;;;9.02;5.65;;;20.30;99.90;;;;;;5097965;28;20038;-68
2023/06/18 06:09:44;;;;;;;8.27;6.13;;;20.40;99.90;;;;;;5090967;28;20035;-68
2023/06/18 06:12:31;;;;;;;11.18;6.22;;;20.40;99.90;;;;;;5093824;28;20039;-69
2023/06/18 06:15:17;;;;;;;8.52;6.82;;;20.50;99.90;;;;;;5101502;28;20148;-68
2023/06/18 06:18:03;;;;;;;6.85;5.47;;;20.50;99.90;;;;;;5096516;28;20031;-69
2023/06/18 06:20:49;;;;;;;7.63;5.95;;;20.60;99.90;;;;;;5089380;28;21302;-72
2023/06/18 06:23:35;;;;;;;6.88;5.55;;;20.70;99.90;;;;;;5089018;28;20440;-72
2023/06/18 06:26:21;;;;;;;7.68;5.25;;;20.70;99.70;;;;;;5088942;28;20094;-72
2023/06/18 06:29:07;;;;;;;9.10;6.10;;;20.80;99.60;;;;;;5087630;28;20181;-72
2023/06/18 06:31:53;;;;;;;7.93;5.75;;;20.90;99.50;;;;;;5101487;28;20059;-71
2023/06/18 06:34:40;;;;;;;8.63;6.03;;;20.90;98.90;;;;;;5094180;28;20063;-72
2023/06/18 06:37:27;;;;;;;8.77;5.60;;;21.00;98.90;;;;;;5097959;28;20104;-71
2023/06/18 06:40:13;;;;;;;9.90;6.63;;;21.00;99.00;;;;;;5099085;28;20027;-72
2023/06/18 06:42:59;;;;;;;5.85;4.68;;;21.10;98.90;;;;;;5088958;28;20086;-72
2023/06/18 06:45:45;;;;;;;8.43;5.18;;;21.10;98.30;;;;;;5090565;28;20081;-78
2023/06/18 06:48:31;;;;;;;6.25;4.78;;;21.20;98.20;;;;;;5098891;28;20040;-71
2023/06/18 06:51:17;;;;;;;5.63;4.30;;;21.30;98.10;;;;;;5088916;28;20426;-72
2023/06/18 06:54:05;;;;;;;6.60;4.90;;;21.40;97.90;;;;;;5090566;28;20043;-71
2023/06/18 06:56:51;;;;;;;6.88;4.60;;;21.60;97.60;;;;;;5094664;28;20425;-72
2023/06/18 06:59:37;;;;;;;7.63;5.32;;;21.60;97.50;;;;;;5091857;28;20123;-71
2023/06/18 07:02:23;;;;;;;6.32;4.80;;;21.60;97.10;;;;;;5089674;28;20116;-72
2023/06/18 07:05:10;;;;;;;6.80;5.13;;;21.70;97.40;;;;;;5088785;28;20387;-72
2023/06/18 07:07:56;;;;;;;6.13;4.75;;;21.70;97.40;;;;;;5089883;28;20024;-72
2023/06/18 07:10:42;;;;;;;8.32;4.60;;;21.80;97.10;;;;;;5090201;28;20063;-72
2023/06/18 07:13:28;;;;;;;8.43;5.20;;;21.80;96.80;;;;;;5091460;28;20111;-73
2023/06/18 07:16:14;;;;;;;7.10;5.53;;;21.90;96.70;;;;;;5093784;28;20466;-72
2023/06/18 07:19:01;;;;;;;6.25;5.35;;;22.00;96.60;;;;;;5093339;28;20036;-71
2023/06/18 07:21:47;;;;;;;7.22;5.20;;;22.00;96.70;;;;;;5093203;27;20036;-72
2023/06/18 07:24:33;;;;;;;6.40;5.15;;;22.10;96.60;;;;;;5096326;28;20040;-72
2023/06/18 07:27:19;;;;;;;6.60;5.22;;;22.20;96.50;;;;;;5095893;28;20384;-72
2023/06/18 07:30:06;;;;;;;8.07;5.22;;;22.20;96.40;;;;;;5095809;28;20095;-71
2023/06/18 07:32:52;;;;;;;6.00;5.40;;;22.30;96.30;;;;;;5080230;28;20177;-72
2023/06/18 07:35:38;;;;;;;7.57;5.90;;;22.30;96.00;;;;;;5091600;28;20181;-71
2023/06/18 07:38:23;;;;;;;6.03;4.63;;;22.40;95.70;;;;;;5097999;28;20624;-71
2023/06/18 07:41:10;;;;;;;5.75;4.60;;;22.40;95.90;;;;;;5098018;28;20118;-71
2023/06/18 07:43:57;;;;;;;7.75;5.85;;;22.50;95.60;;;;;;5086718;28;20062;-71
2023/06/18 07:46:43;;;;;;;7.80;4.93;;;22.60;95.60;;;;;;5097415;28;20472;-71
2023/06/18 07:49:29;;;;;;;7.68;5.55;;;22.60;95.20;;;;;;5095993;28;20035;-72
2023/06/18 07:52:15;;;;;;;5.82;4.47;;;22.60;95.20;;;;;;5108829;28;20031;-72
2023/06/18 07:55:01;;;;;;;6.25;4.93;;;22.60;95.30;;;;;;5093129;28;20032;-72
2023/06/18 07:57:47;;;;;;;7.07;4.60;;;22.70;95.10;;;;;;5098606;28;20036;-72
2023/06/18 08:00:33;;;;;;;7.82;5.10;;;22.80;95.10;;;;;;5097675;28;20034;-73
2023/06/18 08:03:19;;;;;;;6.75;4.35;;;22.80;94.90;;;;;;5105530;28;20032;-76
2023/06/18 08:06:05;;;;;;;5.45;4.47;;;22.90;94.70;;;;;;5102009;28;20036;-72
2023/06/18 08:08:51;;;;;;;5.22;4.22;;;22.90;94.60;;;;;;5108541;28;20040;-73
2023/06/18 08:11:37;;;;;;;6.45;4.07;;;23.00;94.40;;;;;;5109908;28;20031;-73
2023/06/18 08:14:23;;;;;;;5.53;4.20;;;23.00;93.60;;;;;;5091724;28;20541;-73
2023/06/18 08:17:09;;;;;;;6.97;5.07;;;23.00;93.70;;;;;;5092303;28;20090;-77
2023/06/18 08:19:55;;;;;;;6.47;4.53;;;23.10;93.70;;;;;;5089427;28;20443;-74
2023/06/18 08:22:41;;;;;;;7.68;4.20;;;23.10;93.20;;;;;;5109229;28;20047;-73
2023/06/18 08:25:27;;;;;;;9.05;4.38;;;23.30;93.20;;;;;;5101352;28;20032;-73
2023/06/18 08:28:13;;;;;;;4.43;3.28;;;23.40;93.00;;;;;;5094350;28;20031;-73
2023/06/18 08:30:59;;;;;;;5.13;3.65;;;23.40;92.90;;;;;;5077014;28;20039;-73
2023/06/18 08:33:45;;;;;;;5.07;3.78;;;23.50;92.80;;;;;;5110340;28;20128;-74
2023/06/18 08:36:30;;;;;;;5.60;4.10;;;23.70;92.30;;;;;;5098033;28;20131;-74
2023/06/18 08:39:16;;;;;;;4.85;3.92;;;23.80;91.90;;;;;;5095044;28;20038;-73
2023/06/18 08:42:03;;;;;;;7.38;3.58;;;23.90;91.40;;;;;;5094863;28;20031;-74
2023/06/18 08:44:50;;;;;;;4.40;3.42;;;24.00;91.40;;;;;;5091001;28;20476;-74
2023/06/18 08:47:39;;;;;;;5.45;3.40;;;24.10;91.70;;;;;;5102055;28;20472;-73
2023/06/18 08:50:27;;;;;;;5.18;3.53;;;24.20;91.80;;;;;;5089651;28;20036;-74
2023/06/18 08:53:21;;;;;;;9.60;4.68;;;24.40;91.80;;;;;;5094898;28;20024;-74
2023/06/18 08:56:08;;;;;;;8.65;4.97;;;24.50;91.70;;;;;;5097473;28;20081;-73
2023/06/18 08:58:57;;;;;;;4.88;3.75;;;24.60;91.60;;;;;;5095445;28;20397;-72
2023/06/18 09:01:44;;;;;;;6.50;3.90;;;24.80;91.30;;;;;;5098169;28;20039;-73
2023/06/18 09:04:33;;;;;;;6.03;3.78;;;24.90;91.20;;;;;;5093988;28;20476;-78
2023/06/18 09:07:20;;;;;;;6.30;3.85;;;25.00;91.20;;;;;;5091861;28;20032;-72
2023/06/18 09:10:07;;;;;;;5.57;3.72;;;25.10;90.80;;;;;;5091239;28;20307;-72
2023/06/18 09:12:53;;;;;;;5.55;4.07;;;25.10;90.40;;;;;;5098918;28;20127;-72
2023/06/18 09:15:39;;;;;;;4.68;3.40;;;25.10;89.20;;;;;;5091358;28;20036;-72
2023/06/18 09:18:25;;;;;;;5.30;3.55;;;25.20;88.20;;;;;;5088856;28;20728;-72
2023/06/18 09:21:30;;;;;;;4.60;3.72;;;25.20;88.70;;;;;;5095205;28;20391;-72
2023/06/18 09:24:22;;;;;;;5.28;3.58;;;25.20;88.30;;;;;;5094899;28;20097;-72
2023/06/18 09:27:09;;;;;;;5.72;3.83;;;25.30;86.40;;;;;;5093492;28;20024;-73
2023/06/18 09:29:55;;;;;;;4.70;3.72;;;25.30;85.40;;;;;;5089174;28;20520;-73
2023/06/18 09:32:47;;;;;;;5.70;3.78;;;25.20;85.30;;;;;;5090229;28;20180;-73
2023/06/18 09:35:33;;;;;;;5.32;3.40;;;25.30;84.30;;;;;;5087291;28;20052;-73
2023/06/18 09:38:19;;;;;;;4.72;3.70;;;25.30;84.70;;;;;;5089045;28;20106;-72
2023/06/18 09:41:16;;;;;;;5.32;3.55;;;25.30;85.00;;;;;;5092621;28;20031;-73
2023/06/18 09:44:03;;;;;;;4.95;3.80;;;25.30;85.50;;;;;;5098773;28;20490;-73
2023/06/18 09:46:57;;;;;;;5.40;3.97;;;25.30;84.90;;;;;;5101854;28;21465;-72
2023/06/18 09:49:45;;;;;;;5.03;3.95;;;25.30;85.10;;;;;;5086928;28;20035;-74
2023/06/18 09:52:40;;;;;;;4.35;3.25;;;25.30;85.00;;;;;;5095480;28;20036;-73
2023/06/18 09:55:27;;;;;;;;;;;25.30;84.20;;;;;;5092279;28;20036;-74
2023/06/18 09:58:13;;;;;;;4.40;3.17;;;25.30;85.00;;;;;;5101613;28;19915;-73
2023/06/18 10:01:03;;;;;;;5.18;3.80;;;25.30;84.80;;;;;;5095700;28;20031;-74
2023/06/18 10:03:49;;;;;;;6.65;3.83;;;25.30;83.40;;;;;;5101895;28;20377;-73
2023/06/18 10:06:37;;;;;;;6.20;3.97;;;25.40;84.30;;;;;;5094512;28;20028;-75
2023/06/18 10:09:29;;;;;;;4.68;4.00;;;25.40;83.70;;;;;;5098462;28;20084;-73
2023/06/18 10:12:17;;;;;;;5.38;3.45;;;25.60;83.70;;;;;;5092082;28;20044;-74
2023/06/18 10:15:04;;;;;;;4.90;3.60;;;25.60;81.70;;;;;;5096362;28;20023;-74
2023/06/18 10:17:55;;;;;;;4.25;3.60;;;25.60;81.20;;;;;;5093924;28;20068;-73
2023/06/18 10:20:43;;;;;;;5.57;4.10;;;25.60;81.00;;;;;;5089920;28;20093;-74
2023/06/18 10:23:32;;;;;;;7.03;3.60;;;25.60;79.80;;;;;;5099556;28;20061;-74
2023/06/18 10:26:18;;;;;;;5.10;3.92;;;25.60;79.70;;;;;;5089951;28;20085;-73
2023/06/18 10:29:06;;;;;;;4.45;3.53;;;25.60;79.30;;;;;;5088425;28;20106;-74
2023/06/18 10:31:53;;;;;;;4.57;3.70;;;25.70;78.80;;;;;;5085290;28;20321;-74
2023/06/18 10:34:39;;;;;;;4.38;3.35;;;25.70;78.00;;;;;;5095405;28;20045;-74
2023/06/18 10:37:26;;;;;;;6.78;3.72;;;25.70;78.00;;;;;;5086986;28;20085;-74
2023/06/18 10:40:13;;;;;;;5.25;3.42;;;25.70;77.90;;;;;;5093736;28;20038;-75
2023/06/18 10:43:04;;;;;;;4.78;3.50;;;25.80;78.80;;;;;;5102165;28;20031;-76
2023/06/18 10:46:09;;;;;;;5.72;4.15;;;25.80;77.80;;;;;;5093214;28;20096;-70
2023/06/18 10:49:19;;;;;;;4.82;3.58;;;25.70;78.80;;;;;;5094142;28;20040;-68
2023/06/18 10:52:10;;;;;;;6.50;4.15;;;25.80;78.70;;;;;;5095521;28;20062;-68
2023/06/18 10:55:08;;;;;;;6.05;4.03;;;25.90;78.60;;;;;;5095148;27;20067;-67
2023/06/18 10:58:03;;;;;;;4.78;3.65;;;25.90;77.30;;;;;;5092930;28;20043;-68
2023/06/18 11:00:53;;;;;;;;;;;25.90;77.40;;;;;;5100888;28;20039;-68
2023/06/18 11:03:40;;;;;;;4.80;3.15;;;26.00;79.10;;;;;;5099583;28;20378;-68
2023/06/18 11:06:29;;;;;;;5.15;3.42;;;26.00;77.30;;;;;;5081954;28;20500;-70
2023/06/18 11:09:15;;;;;;;5.20;3.72;;;26.10;77.20;;;;;;5093396;28;20118;-67
2023/06/18 11:12:01;;;;;;;5.20;3.88;;;26.20;76.80;;;;;;5093702;28;20028;-67
2023/06/18 11:15:06;;;;;;;5.40;3.47;;;26.30;75.90;;;;;;5093215;28;20510;-64
2023/06/18 11:17:54;;;;;;;3.75;2.75;;;26.30;76.10;;;;;;5076586;28;20044;-65
2023/06/18 11:20:40;;;;;;;6.57;3.60;;;26.30;74.60;;;;;;5090242;28;20043;-66
2023/06/18 11:23:28;;;;;;;4.95;3.47;;;26.30;74.60;;;;;;5097945;28;20036;-65
2023/06/18 11:26:18;;;;;;;4.53;3.22;;;26.30;75.30;;;;;;5103353;28;20023;-66
2023/06/18 11:29:04;;;;;;;4.95;3.13;;;26.30;74.40;;;;;;5093760;28;20064;-65
2023/06/18 11:31:50;;;;;;;3.72;2.78;;;26.40;73.90;;;;;;5102891;28;20468;-65
2023/06/18 11:34:43;;;;;;;3.33;2.75;;;26.40;74.10;;;;;;5091700;28;20573;-64
2023/06/18 11:37:29;;;;;;;4.70;3.20;;;26.50;73.00;;;;;;5096902;28;20488;-65
2023/06/18 11:40:15;;;;;;;3.92;3.42;;;26.60;73.50;;;;;;5090741;28;20487;-65
2023/06/18 11:43:01;;;;;;;4.20;3.30;;;26.70;74.00;;;;;;5090047;28;20082;-66
2023/06/18 11:45:51;;;;;;;5.28;3.50;;;26.80;72.60;;;;;;5089822;28;20441;-65
2023/06/18 11:48:37;;;;;;;4.85;3.25;;;26.90;73.20;;;;;;5099249;28;20098;-65
2023/06/18 11:51:25;;;;;;;4.22;3.15;;;27.00;72.10;;;;;;5091341;28;20020;-73
2023/06/18 11:54:11;;;;;;;4.88;3.33;;;27.10;71.80;;;;;;5089544;28;20067;-75
2023/06/18 11:56:57;;;;;;;5.25;3.45;;;27.20;71.50;;;;;;5082150;28;20465;-75
2023/06/18 11:59:44;;;;;;;4.65;3.08;;;27.10;71.20;;;;;;5091952;28;20028;-70
2023/06/18 12:02:30;;;;;;;4.70;2.92;;;27.10;69.70;;;;;;5090665;28;20496;-75
2023/06/18 12:05:16;;;;;;;5.10;3.22;;;27.10;68.30;;;;;;5092169;28;20397;-72
2023/06/18 12:08:13;;;;;;;4.80;2.97;;;27.00;68.30;;;;;;5104493;28;20028;-66
2023/06/18 12:11:00;;;;;;;4.53;2.58;;;26.90;69.10;;;;;;5096156;28;20039;-66
2023/06/18 12:13:47;;;;;;;3.53;2.78;;;26.90;67.80;;;;;;5093336;28;20504;-66
2023/06/18 12:16:35;;;;;;;6.05;2.65;;;26.90;68.10;;;;;;5093903;28;20039;-65
2023/06/18 12:19:22;;;;;;;4.68;3.13;;;27.00;68.80;;;;;;5096900;28;20031;-65
2023/06/18 12:22:08;;;;;;;4.28;2.97;;;27.10;69.30;;;;;;5094929;27;20028;-72
2023/06/18 12:24:55;;;;;;;5.82;3.15;;;27.10;68.10;;;;;;5081748;28;20097;-75
2023/06/18 12:27:42;;;;;;;4.13;3.22;;;27.20;67.50;;;;;;5091950;28;20040;-68
2023/06/18 12:30:30;;;;;;;4.38;2.60;;;27.20;67.90;;;;;;5101263;28;20028;-68
2023/06/18 12:33:16;;;;;;;4.47;3.28;;;27.30;68.30;;;;;;5097712;28;20495;-67
2023/06/18 12:36:03;;;;;;;9.75;4.10;;;27.40;67.80;;;;;;5094517;28;20024;-77
2023/06/18 12:38:50;;;;;;;4.43;3.17;;;27.40;67.60;;;;;;5097516;28;20039;-73
2023/06/18 12:41:39;;;;;;;5.07;3.33;;;27.50;67.40;;;;;;5089045;28;20036;-73
2023/06/18 12:44:27;;;;;;;5.35;3.50;;;27.60;67.30;;;;;;5088764;28;20059;-73
2023/06/18 12:47:16;;;;;;;4.20;3.60;;;27.60;66.90;;;;;;5087494;28;20028;-73
2023/06/18 12:50:02;;;;;;;6.55;3.25;;;27.70;67.10;;;;;;5077445;28;20035;-68
2023/06/18 12:52:48;;;;;;;6.82;3.88;;;27.90;67.50;;;;;;5102221;28;20081;-67
2023/06/18 12:55:34;;;;;;;5.10;3.45;;;28.10;68.30;;;;;;5091904;28;20481;-67
2023/06/18 12:58:23;;;;;;;4.13;2.90;;;28.30;67.70;;;;;;5102451;28;20089;-67
2023/06/18 13:01:10;;;;;;;4.50;3.17;;;28.50;67.00;;;;;;5094252;28;20442;-68
2023/06/18 13:03:57;;;;;;;3.95;2.95;;;28.70;66.50;;;;;;5093092;28;20110;-67
2023/06/18 13:06:43;;;;;;;5.10;3.20;;;28.80;65.70;;;;;;5096673;28;20679;-67
2023/06/18 13:09:29;;;;;;;4.88;3.38;;;28.70;63.90;;;;;;5092816;28;20504;-66
2023/06/18 13:12:16;;;;;;;4.07;3.03;;;28.70;63.60;;;;;;5099630;28;20020;-67
2023/06/18 13:15:02;;;;;;;5.00;3.40;;;28.80;63.10;;;;;;5092015;28;20035;-68
2023/06/18 13:17:48;;;;;;;3.88;2.92;;;28.80;63.00;;;;;;5104748;28;20092;-68
2023/06/18 13:20:34;;;;;;;4.68;3.50;;;28.90;61.00;;;;;;5096127;28;20021;-69
2023/06/18 13:23:21;;;;;;;5.50;3.25;;;28.80;60.40;;;;;;5096363;28;20036;-68
2023/06/18 13:26:07;;;;;;;5.13;2.88;;;28.90;60.80;;;;;;5104733;28;20031;-68
2023/06/18 13:28:53;;;;;;;4.95;3.40;;;28.90;60.30;;;;;;5107452;28;20035;-67
2023/06/18 13:31:39;;;;;;;4.88;3.40;;;29.00;60.20;;;;;;5088043;28;20063;-67
2023/06/18 13:34:25;;;;;;;4.75;3.42;;;29.00;60.00;;;;;;5096159;28;20109;-67
2023/06/18 13:37:11;;;;;;;4.03;3.13;;;29.10;61.10;;;;;;5091464;28;20035;-67
2023/06/18 13:39:57;;;;;;;6.00;3.65;;;29.20;61.20;;;;;;5088776;28;20032;-67
2023/06/18 13:42:43;;;;;;;4.72;3.50;;;29.40;60.90;;;;;;5088854;28;20538;-67
2023/06/18 13:45:29;;;;;;;6.20;3.33;;;29.50;60.30;;;;;;5095799;28;20040;-66
2023/06/18 13:48:16;;;;;;;6.22;3.30;;;29.60;59.20;;;;;;5091023;28;20028;-66
2023/06/18 13:51:01;;;;;;;3.90;3.08;;;29.60;58.80;;;;;;5093872;28;20434;-66
2023/06/18 13:53:47;;;;;;;5.25;3.25;;;29.60;57.90;;;;;;5101854;28;20059;-66
2023/06/18 13:56:33;;;;;;;4.50;3.00;;;29.70;58.20;;;;;;5095073;28;20126;-74
2023/06/18 13:59:20;;;;;;;4.30;2.90;;;29.60;56.70;;;;;;5092438;28;20269;-67
2023/06/18 14:02:06;;;;;;;4.50;3.50;;;29.60;57.80;;;;;;5094797;28;20020;-67
2023/06/18 14:04:53;;;;;;;4.50;3.65;;;29.80;58.20;;;;;;5099285;28;20028;-66
2023/06/18 14:07:39;;;;;;;3.75;3.10;;;30.00;58.30;;;;;;5094068;28;20067;-66
2023/06/18 14:10:25;;;;;;;4.60;3.10;;;30.00;59.00;;;;;;5085416;28;20043;-65
2023/06/18 14:13:11;;;;;;;4.00;3.22;;;30.00;58.20;;;;;;5092153;28;20039;-69
2023/06/18 14:15:57;;;;;;;2.53;2.22;;;29.90;57.10;;;;;;5099444;28;20089;-69
2023/06/18 14:18:43;;;;;;;5.65;3.58;;;29.80;56.80;;;;;;5098591;28;20042;-68
2023/06/18 14:21:29;;;;;;;5.82;3.22;;;29.60;56.20;;;;;;5093285;28;20040;-69